Garden City, Louisiana
Current Conditions -  °F | °C
As of 4:55 PM on Tuesday 25 Nov 2014 (Local Time) from KPTN Reporting Station
Clear Clear  
Wind Chill: 54°   Ceiling: Unl
Heat Index: 54°   Visibility: 8mi
Dew Point: 34°   Wind: 9mph
Humidity: 47%   Direction: 320°NW
Pressure: 30.2"   Gusts: NA
Location:  29.77°N, 91.47°W
Report Text: KPTN 252255Z AUTO 32008KT 8SM CLR 12/01 A3020 RMK AO1
Loading
Personal Weather Stations






























Interactive Weather Map New forecast layout! Learn more

10-Day Weather Forecast

Advertisements
Track Severe Weather on mobile